Time;durP1;ratioP1;P1;durP2;ratioP2;P2;SDS_P1;SDS_P2;PMS_P1;PMS_P2;Temp;Humidity;BMP_temperature;BMP_pressure;BME280_temperature;BME280_humidity;BME280_pressure;Samples;Min_cycle;Max_cycle;Signal;HPM_P1;HPM_P2
2023/02/28 00:00:36;;;;;;;5.22;3.25;;;;;;;;;;5012914;28;20174;-61
2023/02/28 00:03:03;;;;;;;5.00;3.25;;;;;;;;;;5012837;28;20194;-62
2023/02/28 00:05:29;;;;;;;5.00;3.67;;;;;;;;;;5012416;28;20201;-62
2023/02/28 00:07:55;;;;;;;7.15;3.05;;;;;;;;;;5012664;28;20173;-62
2023/02/28 00:10:22;;;;;;;4.43;2.85;;;;;;;;;;5013048;28;20169;-62
2023/02/28 00:12:49;;;;;;;3.92;3.15;;;;;;;;;;5012730;28;20185;-62
2023/02/28 00:15:15;;;;;;;3.50;2.60;;;;;;;;;;5012575;28;20166;-58
2023/02/28 00:17:41;;;;;;;4.97;3.10;;;;;;;;;;5012624;28;20170;-62
2023/02/28 00:20:08;;;;;;;6.03;3.22;;;;;;;;;;5012754;28;20178;-60
2023/02/28 00:22:34;;;;;;;9.23;3.25;;;;;;;;;;5012595;28;20193;-62
2023/02/28 00:25:00;;;;;;;6.75;3.40;;;;;;;;;;5012860;28;20177;-62
2023/02/28 00:27:27;;;;;;;5.38;3.58;;;;;;;;;;5013718;28;20174;-61
2023/02/28 00:29:54;;;;;;;6.68;2.88;;;;;;;;;;5013016;28;20547;-61
2023/02/28 00:32:20;;;;;;;5.60;3.10;;;;;;;;;;5012618;28;20166;-62
2023/02/28 00:34:46;;;;;;;5.68;2.88;;;;;;;;;;5012456;28;20250;-62
2023/02/28 00:37:12;;;;;;;9.80;2.78;;;;;;;;;;5012744;28;20494;-62
2023/02/28 00:39:38;;;;;;;6.53;3.08;;;;;;;;;;5012137;28;20174;-62
2023/02/28 00:42:05;;;;;;;5.35;2.75;;;;;;;;;;5012101;28;20186;-61
2023/02/28 00:44:31;;;;;;;6.65;3.17;;;;;;;;;;5012304;28;20170;-61
2023/02/28 00:46:58;;;;;;;4.13;2.45;;;;;;;;;;5012685;28;20642;-62
2023/02/28 00:49:25;;;;;;;6.60;2.83;;;;;;;;;;5011888;28;20659;-60
2023/02/28 00:51:51;;;;;;;4.28;2.33;;;;;;;;;;5012345;28;20206;-62
2023/02/28 00:54:17;;;;;;;7.00;2.78;;;;;;;;;;5012488;28;20178;-63
2023/02/28 00:56:45;;;;;;;6.25;2.50;;;;;;;;;;5012048;28;20203;-60
2023/02/28 00:59:11;;;;;;;4.53;2.25;;;;;;;;;;5012095;28;20599;-60
2023/02/28 01:01:37;;;;;;;3.95;2.53;;;;;;;;;;5014506;28;20272;-61
2023/02/28 01:04:04;;;;;;;3.88;2.22;;;;;;;;;;5015928;28;20261;-61
2023/02/28 01:06:31;;;;;;;5.95;2.88;;;;;;;;;;5016105;28;20151;-60
2023/02/28 01:08:57;;;;;;;7.80;2.90;;;;;;;;;;5016187;28;20178;-61
2023/02/28 01:11:23;;;;;;;4.53;2.40;;;;;;;;;;5015968;28;20303;-60
2023/02/28 01:13:49;;;;;;;7.60;2.85;;;;;;;;;;5015466;28;20198;-60
2023/02/28 01:16:15;;;;;;;5.60;2.65;;;;;;;;;;5015462;28;20175;-59
2023/02/28 01:18:41;;;;;;;4.53;2.65;;;;;;;;;;5015081;28;20174;-60
2023/02/28 01:21:08;;;;;;;4.53;3.17;;;;;;;;;;5015532;28;20177;-61
2023/02/28 01:23:34;;;;;;;5.20;3.05;;;;;;;;;;5015120;28;20194;-61
2023/02/28 01:26:07;;;;;;;5.72;3.08;;;;;;;;;;5015464;28;20179;-59
2023/02/28 01:28:33;;;;;;;7.78;3.63;;;;;;;;;;5014776;28;20597;-59
2023/02/28 01:30:59;;;;;;;5.78;3.22;;;;;;;;;;5014937;28;20167;-61
2023/02/28 01:33:25;;;;;;;4.90;2.85;;;;;;;;;;5015467;28;20499;-60
2023/02/28 01:35:57;;;;;;;6.40;3.47;;;;;;;;;;5017182;28;20178;-62
2023/02/28 01:38:25;;;;;;;6.78;4.03;;;;;;;;;;5020188;28;20169;-62
2023/02/28 01:40:51;;;;;;;7.57;4.05;;;;;;;;;;5020406;28;20636;-61
2023/02/28 01:43:21;;;;;;;5.43;3.55;;;;;;;;;;5017957;28;20194;-62
2023/02/28 01:45:47;;;;;;;5.70;3.55;;;;;;;;;;5017891;28;20186;-62
2023/02/28 01:48:13;;;;;;;6.18;3.65;;;;;;;;;;5018108;28;20178;-62
2023/02/28 01:50:41;;;;;;;5.28;3.30;;;;;;;;;;5015878;28;20171;-60
2023/02/28 01:53:09;;;;;;;7.28;4.10;;;;;;;;;;5015597;28;20193;-60
2023/02/28 01:55:36;;;;;;;5.97;4.10;;;;;;;;;;5015549;28;20190;-62
2023/02/28 01:58:05;;;;;;;10.80;5.30;;;;;;;;;;5017020;28;20196;-61
2023/02/28 02:00:31;;;;;;;8.00;4.47;;;;;;;;;;5015436;28;20217;-60
2023/02/28 02:03:05;;;;;;;5.25;4.18;;;;;;;;;;5015588;28;20201;-60
2023/02/28 02:05:31;;;;;;;8.55;4.60;;;;;;;;;;5014546;28;20506;-61
2023/02/28 02:08:01;;;;;;;6.68;4.50;;;;;;;;;;5014625;28;20166;-62
2023/02/28 02:10:31;;;;;;;11.50;4.55;;;;;;;;;;5014425;28;20162;-61
2023/02/28 02:13:03;;;;;;;9.32;4.70;;;;;;;;;;5013501;28;20540;-61
2023/02/28 02:15:32;;;;;;;6.15;4.35;;;;;;;;;;5014485;28;20547;-61
2023/02/28 02:18:02;;;;;;;5.50;4.25;;;;;;;;;;5019323;28;20198;-60
2023/02/28 02:20:31;;;;;;;10.85;4.78;;;;;;;;;;5014309;28;20158;-60
2023/02/28 02:23:12;;;;;;;8.18;4.80;;;;;;;;;;5014072;28;20281;-61
2023/02/28 02:25:41;;;;;;;7.22;4.43;;;;;;;;;;5014358;28;20573;-61
2023/02/28 02:28:30;;;;;;;6.93;4.43;;;;;;;;;;5014881;28;20189;-60
2023/02/28 02:31:14;;;;;;;6.68;4.13;;;;;;;;;;5014054;28;20354;-61
2023/02/28 02:33:58;;;;;;;7.20;4.30;;;;;;;;;;5014251;28;20178;-62
2023/02/28 02:36:27;;;;;;;6.68;4.43;;;;;;;;;;5014287;28;20186;-61
2023/02/28 02:39:12;;;;;;;7.22;4.40;;;;;;;;;;5014765;28;20315;-61
2023/02/28 02:41:50;;;;;;;8.73;4.85;;;;;;;;;;5014138;28;20188;-61
2023/02/28 02:44:40;;;;;;;6.85;4.82;;;;;;;;;;5014229;28;20166;-62
2023/02/28 02:47:12;;;;;;;8.65;4.38;;;;;;;;;;5013919;28;20174;-62
2023/02/28 02:49:40;;;;;;;11.13;5.32;;;;;;;;;;5013963;28;20177;-62
2023/02/28 02:52:08;;;;;;;9.65;5.32;;;;;;;;;;5013678;28;20170;-61
2023/02/28 02:54:36;;;;;;;9.02;5.22;;;;;;;;;;5013676;28;20245;-61
2023/02/28 02:57:08;;;;;;;7.97;4.82;;;;;;;;;;5013904;28;20273;-61
2023/02/28 02:59:35;;;;;;;8.48;4.80;;;;;;;;;;5013833;28;20171;-62
2023/02/28 03:02:03;;;;;;;6.53;4.82;;;;;;;;;;5013745;28;20250;-62
2023/02/28 03:04:32;;;;;;;8.63;5.10;;;;;;;;;;5013562;28;20639;-62
2023/02/28 03:06:58;;;;;;;8.73;5.40;;;;;;;;;;5013744;28;20173;-62
2023/02/28 03:09:25;;;;;;;8.20;5.28;;;;;;;;;;5013624;28;20163;-61
2023/02/28 03:11:53;;;;;;;7.80;5.50;;;;;;;;;;5014018;28;20201;-60
2023/02/28 03:14:36;;;;;;;7.05;5.50;;;;;;;;;;5013481;28;20184;-61
2023/02/28 03:17:20;;;;;;;7.07;5.45;;;;;;;;;;5013325;28;20494;-62
2023/02/28 03:19:53;;;;;;;6.90;5.65;;;;;;;;;;5013483;28;20544;-62
2023/02/28 03:22:32;;;;;;;7.18;5.32;;;;;;;;;;5014046;28;20589;-61
2023/02/28 03:25:13;;;;;;;10.23;6.35;;;;;;;;;;5013562;28;20162;-60
2023/02/28 03:27:41;;;;;;;7.93;5.13;;;;;;;;;;5013544;28;20207;-62
2023/02/28 03:30:16;;;;;;;7.18;4.75;;;;;;;;;;5013250;28;20189;-62
2023/02/28 03:33:02;;;;;;;9.38;5.72;;;;;;;;;;5013620;28;20159;-62
2023/02/28 03:35:31;;;;;;;7.05;5.05;;;;;;;;;;5009157;28;20274;-62
2023/02/28 03:38:01;;;;;;;10.70;5.47;;;;;;;;;;5013279;28;20174;-62
2023/02/28 03:40:30;;;;;;;7.75;5.47;;;;;;;;;;5013142;28;20181;-58
2023/02/28 03:43:03;;;;;;;11.13;5.88;;;;;;;;;;5012896;28;20760;-57
2023/02/28 03:45:31;;;;;;;9.65;5.47;;;;;;;;;;5013013;28;20157;-61
2023/02/28 03:48:05;;;;;;;8.32;5.43;;;;;;;;;;5013551;28;20546;-62
2023/02/28 03:50:39;;;;;;;9.60;5.85;;;;;;;;;;5012767;28;20569;-62
2023/02/28 03:53:28;;;;;;;10.07;6.53;;;;;;;;;;5013006;28;20185;-62
2023/02/28 03:55:57;;;;;;;11.02;5.75;;;;;;;;;;5009865;28;20255;-61
2023/02/28 03:58:44;;;;;;;9.43;6.68;;;;;;;;;;5012773;28;20162;-62
2023/02/28 04:01:17;;;;;;;12.32;6.22;;;;;;;;;;5013115;28;20538;-62
2023/02/28 04:03:43;;;;;;;13.13;6.53;;;;;;;;;;5012323;28;20190;-62
2023/02/28 04:06:14;;;;;;;9.18;6.18;;;;;;;;;;5012657;28;20241;-61
2023/02/28 04:08:40;;;;;;;10.82;6.35;;;;;;;;;;5012872;28;20154;-62
2023/02/28 04:11:14;;;;;;;11.05;6.45;;;;;;;;;;5012574;28;20281;-62
2023/02/28 04:13:40;;;;;;;9.13;6.13;;;;;;;;;;5012741;28;20216;-61
2023/02/28 04:16:11;;;;;;;9.45;6.63;;;;;;;;;;5012740;28;20170;-60
2023/02/28 04:18:40;;;;;;;8.70;6.15;;;;;;;;;;5012679;28;20182;-62
2023/02/28 04:21:07;;;;;;;14.25;6.30;;;;;;;;;;5012604;28;20174;-61
2023/02/28 04:23:33;;;;;;;9.85;6.32;;;;;;;;;;5012305;28;20665;-61
2023/02/28 04:25:59;;;;;;;9.27;6.30;;;;;;;;;;5012379;28;20245;-62
2023/02/28 04:28:25;;;;;;;12.40;6.68;;;;;;;;;;5012475;28;20197;-62
2023/02/28 04:30:58;;;;;;;9.70;6.80;;;;;;;;;;5012212;28;20166;-60
2023/02/28 04:33:24;;;;;;;11.85;7.15;;;;;;;;;;5012357;28;20178;-62
2023/02/28 04:36:00;;;;;;;13.95;6.45;;;;;;;;;;5014144;28;20174;-62
2023/02/28 04:38:26;;;;;;;11.38;6.70;;;;;;;;;;5016046;28;20299;-60
2023/02/28 04:40:52;;;;;;;9.80;6.47;;;;;;;;;;5015080;28;20593;-62
2023/02/28 04:43:18;;;;;;;11.50;6.32;;;;;;;;;;5015730;28;20293;-61
2023/02/28 04:45:44;;;;;;;10.95;7.05;;;;;;;;;;5015644;28;20499;-61
2023/02/28 04:48:10;;;;;;;8.20;6.20;;;;;;;;;;5015847;28;20500;-61
2023/02/28 04:50:36;;;;;;;11.77;6.75;;;;;;;;;;5015835;28;20231;-63
2023/02/28 04:53:02;;;;;;;9.90;6.28;;;;;;;;;;5015846;28;20178;-59
2023/02/28 04:55:28;;;;;;;10.38;6.28;;;;;;;;;;5015676;28;20317;-59
2023/02/28 04:57:54;;;;;;;12.05;6.70;;;;;;;;;;5015893;28;20169;-59
2023/02/28 05:00:20;;;;;;;13.00;6.20;;;;;;;;;;5016516;28;20232;-60
2023/02/28 05:02:46;;;;;;;10.88;6.35;;;;;;;;;;5015833;28;20525;-61
2023/02/28 05:05:17;;;;;;;11.25;6.65;;;;;;;;;;5015503;28;20178;-59
2023/02/28 05:07:45;;;;;;;9.25;6.10;;;;;;;;;;5015430;28;20186;-62
2023/02/28 05:10:12;;;;;;;12.85;6.70;;;;;;;;;;5015475;28;20260;-60
2023/02/28 05:12:38;;;;;;;13.30;7.00;;;;;;;;;;5016303;28;20210;-62
2023/02/28 05:15:04;;;;;;;10.05;5.95;;;;;;;;;;5015817;28;20261;-62
2023/02/28 05:17:31;;;;;;;11.23;6.60;;;;;;;;;;5015175;28;20480;-62
2023/02/28 05:19:57;;;;;;;9.88;6.20;;;;;;;;;;5015276;28;20597;-61
2023/02/28 05:22:23;;;;;;;9.63;6.35;;;;;;;;;;5030696;28;20194;-62
2023/02/28 05:24:49;;;;;;;11.45;6.50;;;;;;;;;;5034068;28;20158;-62
2023/02/28 05:27:15;;;;;;;11.52;6.18;;;;;;;;;;5032033;28;20182;-61
2023/02/28 05:29:44;;;;;;;11.63;6.88;;;;;;;;;;5028029;28;20238;-62
2023/02/28 05:32:10;;;;;;;9.02;6.70;;;;;;;;;;5028051;28;20175;-62
2023/02/28 05:34:37;;;;;;;9.20;6.55;;;;;;;;;;5029005;28;20246;-62
2023/02/28 05:37:03;;;;;;;10.60;6.95;;;;;;;;;;5023246;28;20178;-60
2023/02/28 05:39:29;;;;;;;9.20;6.47;;;;;;;;;;5015979;28;20183;-61
2023/02/28 05:41:55;;;;;;;12.60;7.10;;;;;;;;;;5015368;28;20505;-60
2023/02/28 05:44:21;;;;;;;9.48;6.50;;;;;;;;;;5014999;28;20504;-61
2023/02/28 05:46:47;;;;;;;9.82;6.90;;;;;;;;;;5014455;28;20202;-60
2023/02/28 05:49:13;;;;;;;13.27;7.43;;;;;;;;;;5014288;28;20174;-60
2023/02/28 05:51:39;;;;;;;14.48;7.53;;;;;;;;;;5014971;28;20158;-61
2023/02/28 05:54:06;;;;;;;11.73;6.20;;;;;;;;;;5014966;28;20170;-60
2023/02/28 05:56:34;;;;;;;9.52;6.95;;;;;;;;;;5015005;28;20170;-58
2023/02/28 05:59:00;;;;;;;13.05;7.57;;;;;;;;;;5014715;28;20166;-60
2023/02/28 06:01:39;;;;;;;14.57;7.82;;;;;;;;;;5014601;28;20509;-60
2023/02/28 06:04:06;;;;;;;8.90;6.60;;;;;;;;;;5014367;28;20312;-61
2023/02/28 06:06:36;;;;;;;12.40;7.57;;;;;;;;;;5014723;28;20147;-61
2023/02/28 06:09:03;;;;;;;10.75;6.53;;;;;;;;;;5014863;28;20179;-62
2023/02/28 06:11:29;;;;;;;9.90;6.55;;;;;;;;;;5014539;28;20170;-61
2023/02/28 06:13:56;;;;;;;12.77;8.07;;;;;;;;;;5014551;28;20219;-62
2023/02/28 06:16:22;;;;;;;10.25;6.90;;;;;;;;;;5014126;28;20185;-61
2023/02/28 06:18:48;;;;;;;10.75;7.28;;;;;;;;;;5014623;28;20174;-61
2023/02/28 06:21:14;;;;;;;12.32;7.45;;;;;;;;;;5014180;28;20185;-62
2023/02/28 06:23:40;;;;;;;10.82;7.03;;;;;;;;;;5014314;28;20285;-62
2023/02/28 06:26:07;;;;;;;9.63;7.18;;;;;;;;;;5014459;28;20170;-62
2023/02/28 06:28:33;;;;;;;11.20;7.45;;;;;;;;;;5014096;28;20167;-62
2023/02/28 06:30:59;;;;;;;8.82;6.95;;;;;;;;;;5014795;28;20249;-61
2023/02/28 06:33:25;;;;;;;11.93;7.18;;;;;;;;;;5014762;28;20170;-62
2023/02/28 06:35:51;;;;;;;12.45;7.55;;;;;;;;;;5014081;28;20173;-61
2023/02/28 06:38:18;;;;;;;12.70;8.38;;;;;;;;;;5013918;28;20177;-61
2023/02/28 06:40:44;;;;;;;12.60;8.25;;;;;;;;;;5016965;28;20173;-60
2023/02/28 06:43:13;;;;;;;11.52;8.13;;;;;;;;;;5014973;28;20190;-61
2023/02/28 06:45:41;;;;;;;14.30;8.65;;;;;;;;;;5014215;28;20170;-62
2023/02/28 06:48:07;;;;;;;12.68;8.20;;;;;;;;;;5013696;28;20182;-60
2023/02/28 06:50:33;;;;;;;12.05;8.13;;;;;;;;;;5014123;28;20166;-62
2023/02/28 06:52:59;;;;;;;13.27;8.38;;;;;;;;;;5013897;28;20177;-61
2023/02/28 06:55:25;;;;;;;15.27;8.65;;;;;;;;;;5014339;28;20477;-61
2023/02/28 06:57:51;;;;;;;12.70;8.52;;;;;;;;;;5014296;28;20170;-62
2023/02/28 07:00:17;;;;;;;13.35;8.45;;;;;;;;;;5013747;28;20256;-62
2023/02/28 07:02:43;;;;;;;16.08;8.93;;;;;;;;;;5013715;28;20217;-62
2023/02/28 07:05:09;;;;;;;12.85;8.55;;;;;;;;;;5013469;28;20294;-61
2023/02/28 07:07:37;;;;;;;13.13;8.07;;;;;;;;;;5013715;28;20163;-62
2023/02/28 07:10:03;;;;;;;12.15;8.63;;;;;;;;;;5013470;28;20166;-61
2023/02/28 07:12:29;;;;;;;13.70;8.27;;;;;;;;;;5013802;28;20196;-61
2023/02/28 07:14:55;;;;;;;9.77;7.28;;;;;;;;;;5013594;28;20170;-61
2023/02/28 07:17:21;;;;;;;15.20;8.38;;;;;;;;;;5013797;28;20634;-59
2023/02/28 07:19:47;;;;;;;13.68;8.30;;;;;;;;;;5013431;28;20624;-60
2023/02/28 07:22:13;;;;;;;12.60;9.00;;;;;;;;;;5013700;28;20520;-62
2023/02/28 07:24:39;;;;;;;12.82;8.77;;;;;;;;;;5014334;28;20188;-62
2023/02/28 07:27:06;;;;;;;16.10;9.98;;;;;;;;;;5013353;28;20162;-62
2023/02/28 07:29:32;;;;;;;13.63;9.63;;;;;;;;;;5013868;28;20171;-60
2023/02/28 07:31:58;;;;;;;17.02;11.23;;;;;;;;;;5013460;28;20540;-61
2023/02/28 07:34:25;;;;;;;16.38;11.10;;;;;;;;;;5012972;28;20170;-61
2023/02/28 07:36:53;;;;;;;15.73;10.85;;;;;;;;;;5013267;28;20174;-61
2023/02/28 07:39:19;;;;;;;13.60;10.55;;;;;;;;;;5013619;28;20174;-62
2023/02/28 07:41:45;;;;;;;12.98;9.82;;;;;;;;;;5013427;28;20186;-60
2023/02/28 07:44:11;;;;;;;18.00;10.27;;;;;;;;;;5011874;28;20294;-62
2023/02/28 07:46:37;;;;;;;13.43;9.52;;;;;;;;;;5013814;28;20625;-62
2023/02/28 07:49:04;;;;;;;14.77;9.13;;;;;;;;;;5013401;28;20502;-61
2023/02/28 07:51:30;;;;;;;15.35;8.85;;;;;;;;;;5013147;28;20589;-63
2023/02/28 07:53:56;;;;;;;15.57;8.73;;;;;;;;;;5012875;28;20170;-61
2023/02/28 07:56:23;;;;;;;12.00;8.15;;;;;;;;;;5013085;28;20170;-63
2023/02/28 07:58:49;;;;;;;15.07;8.15;;;;;;;;;;5013392;28;20231;-62
2023/02/28 08:01:15;;;;;;;13.45;7.97;;;;;;;;;;5012781;28;20185;-62
2023/02/28 08:03:41;;;;;;;12.50;7.97;;;;;;;;;;5012593;28;20212;-62
2023/02/28 08:06:08;;;;;;;9.57;7.38;;;;;;;;;;5012713;28;20166;-62
2023/02/28 08:08:34;;;;;;;11.68;7.45;;;;;;;;;;5012568;28;20166;-62
2023/02/28 08:11:01;;;;;;;12.45;7.90;;;;;;;;;;5011889;28;20185;-62
2023/02/28 08:13:27;;;;;;;11.32;6.97;;;;;;;;;;5012557;28;20528;-62
2023/02/28 08:15:57;;;;;;;13.48;7.70;;;;;;;;;;5012742;28;20265;-60
2023/02/28 08:18:23;;;;;;;11.35;7.10;;;;;;;;;;5012968;28;20170;-59
2023/02/28 08:20:49;;;;;;;10.45;6.53;;;;;;;;;;5012620;28;20174;-60
2023/02/28 08:23:15;;;;;;;9.77;6.85;;;;;;;;;;5012480;28;20194;-61
2023/02/28 08:25:41;;;;;;;10.05;6.50;;;;;;;;;;5012520;28;20166;-61
2023/02/28 08:28:07;;;;;;;11.25;7.13;;;;;;;;;;5012728;28;20235;-61
2023/02/28 08:30:33;;;;;;;10.73;6.53;;;;;;;;;;5012313;28;20170;-61
2023/02/28 08:32:59;;;;;;;9.70;6.75;;;;;;;;;;5012180;28;20200;-61
2023/02/28 08:35:25;;;;;;;9.10;6.43;;;;;;;;;;5012675;28;20166;-62
2023/02/28 08:37:51;;;;;;;10.82;6.30;;;;;;;;;;5012773;28;20257;-61
2023/02/28 08:40:20;;;;;;;7.78;5.55;;;;;;;;;;5013494;28;20220;-61
2023/02/28 08:42:48;;;;;;;9.00;6.32;;;;;;;;;;5013058;28;20197;-62
2023/02/28 08:45:15;;;;;;;9.63;5.90;;;;;;;;;;5012749;28;20173;-62
2023/02/28 08:47:41;;;;;;;9.88;5.68;;;;;;;;;;5012917;28;20162;-60
2023/02/28 08:50:07;;;;;;;12.88;5.03;;;;;;;;;;5012838;28;20167;-59
2023/02/28 08:52:33;;;;;;;6.45;5.20;;;;;;;;;;5012548;28;20198;-61
2023/02/28 08:54:59;;;;;;;7.22;5.32;;;;;;;;;;5012826;28;20192;-62
2023/02/28 08:57:26;;;;;;;6.55;5.25;;;;;;;;;;5011979;28;20174;-61
2023/02/28 08:59:52;;;;;;;7.90;5.28;;;;;;;;;;5011625;28;20557;-61
2023/02/28 09:02:18;;;;;;;10.63;5.78;;;;;;;;;;5012008;28;20210;-61
2023/02/28 09:04:45;;;;;;;8.63;5.38;;;;;;;;;;5011561;28;20181;-62
2023/02/28 09:07:11;;;;;;;5.97;5.07;;;;;;;;;;5012606;28;20240;-62
2023/02/28 09:09:37;;;;;;;6.90;5.40;;;;;;;;;;5012933;28;20166;-61
2023/02/28 09:12:04;;;;;;;11.02;5.03;;;;;;;;;;5012742;28;20177;-62
2023/02/28 09:14:30;;;;;;;6.95;5.22;;;;;;;;;;5012977;28;20190;-62
2023/02/28 09:16:56;;;;;;;6.50;4.80;;;;;;;;;;5012837;28;20508;-62
2023/02/28 09:19:22;;;;;;;6.03;4.72;;;;;;;;;;5012833;28;20167;-61
2023/02/28 09:21:48;;;;;;;6.57;4.07;;;;;;;;;;5013230;28;20251;-62
2023/02/28 09:24:15;;;;;;;6.65;4.32;;;;;;;;;;5015577;28;20202;-62
2023/02/28 09:26:41;;;;;;;6.53;4.22;;;;;;;;;;5015101;28;20259;-60
2023/02/28 09:29:06;;;;;;;8.70;4.22;;;;;;;;;;5015390;28;20174;-62
2023/02/28 09:31:33;;;;;;;4.30;3.17;;;;;;;;;;5015299;28;20163;-62
2023/02/28 09:33:59;;;;;;;4.72;1.95;;;;;;;;;;5014957;28;20612;-62
2023/02/28 09:36:25;;;;;;;5.03;2.00;;;;;;;;;;5015017;28;20285;-62
2023/02/28 09:38:52;;;;;;;5.50;1.95;;;;;;;;;;5015207;28;20186;-62
2023/02/28 09:41:35;;;;;;;4.40;2.22;;;;;;;;;;5015368;28;20184;-62
2023/02/28 09:44:02;;;;;;;3.90;2.35;;;;;;;;;;5015420;28;20201;-63
2023/02/28 09:46:31;;;;;;;3.33;2.15;;;;;;;;;;5015614;28;20227;-61
2023/02/28 09:49:00;;;;;;;4.93;2.63;;;;;;;;;;5014801;28;20180;-62
2023/02/28 09:51:34;;;;;;;5.45;3.28;;;;;;;;;;5014770;28;20502;-60
2023/02/28 09:54:01;;;;;;;3.33;1.50;;;;;;;;;;5014723;28;20268;-62
2023/02/28 09:56:33;;;;;;;4.10;1.70;;;;;;;;;;5014551;28;20174;-60
2023/02/28 09:59:01;;;;;;;4.88;1.50;;;;;;;;;;5014699;28;20193;-61
2023/02/28 10:01:34;;;;;;;3.08;1.63;;;;;;;;;;5014531;28;20174;-59
2023/02/28 10:04:16;;;;;;;4.13;1.80;;;;;;;;;;5015115;28;20209;-58
2023/02/28 10:06:47;;;;;;;2.20;1.52;;;;;;;;;;5014740;28;20479;-62
2023/02/28 10:09:20;;;;;;;2.80;1.77;;;;;;;;;;5014362;28;20193;-60
2023/02/28 10:11:47;;;;;;;3.03;1.70;;;;;;;;;;5014217;28;20620;-61
2023/02/28 10:14:20;;;;;;;2.95;1.60;;;;;;;;;;5014578;28;20178;-62
2023/02/28 10:17:05;;;;;;;3.80;1.90;;;;;;;;;;5014338;28;20170;-61
2023/02/28 10:19:35;;;;;;;2.95;1.58;;;;;;;;;;5014493;28;20181;-61
2023/02/28 10:22:03;;;;;;;5.28;1.70;;;;;;;;;;5014219;28;20175;-61
2023/02/28 10:24:30;;;;;;;4.25;1.83;;;;;;;;;;5014248;28;20498;-60
2023/02/28 10:27:00;;;;;;;4.25;1.90;;;;;;;;;;5014624;28;20585;-61
2023/02/28 10:29:27;;;;;;;4.80;2.13;;;;;;;;;;5014310;28;20171;-61
2023/02/28 10:31:53;;;;;;;3.80;1.67;;;;;;;;;;5013788;28;20461;-62
2023/02/28 10:34:19;;;;;;;6.80;1.55;;;;;;;;;;5013173;28;20178;-63
2023/02/28 10:36:45;;;;;;;5.07;1.60;;;;;;;;;;5014114;28;20238;-62
2023/02/28 10:39:29;;;;;;;5.20;1.83;;;;;;;;;;5014047;28;20477;-62
2023/02/28 10:41:55;;;;;;;3.15;1.60;;;;;;;;;;5014111;28;20252;-61
2023/02/28 10:44:23;;;;;;;3.33;1.65;;;;;;;;;;5014058;28;20506;-63
2023/02/28 10:46:49;;;;;;;5.60;2.45;;;;;;;;;;5014046;28;20224;-63
2023/02/28 10:49:19;;;;;;;4.45;2.88;;;;;;;;;;5013738;28;20620;-62
2023/02/28 10:51:46;;;;;;;3.17;2.22;;;;;;;;;;5013833;28;20224;-62
2023/02/28 10:54:27;;;;;;;3.75;1.38;;;;;;;;;;5013882;28;20194;-62
2023/02/28 10:57:15;;;;;;;5.57;2.00;;;;;;;;;;5013479;28;20182;-63
2023/02/28 10:59:41;;;;;;;4.97;1.98;;;;;;;;;;5014027;28;20219;-62
2023/02/28 11:02:46;;;;;;;4.10;1.90;;;;;;;;;;5013457;28;20170;-62
2023/02/28 11:05:25;;;;;;;6.07;2.28;;;;;;;;;;4995853;28;20209;-63
2023/02/28 11:07:55;;;;;;;3.58;1.65;;;;;;;;;;4994209;28;20204;-62
2023/02/28 11:10:25;;;;;;;3.53;1.70;;;;;;;;;;4992517;28;20186;-62
2023/02/28 11:12:55;;;;;;;2.30;1.20;;;;;;;;;;4992244;28;20527;-61
2023/02/28 11:15:21;;;;;;;3.20;1.50;;;;;;;;;;4992212;28;20182;-61
2023/02/28 11:17:54;;;;;;;2.45;1.52;;;;;;;;;;4992212;28;20201;-63
2023/02/28 11:20:25;;;;;;;3.65;1.50;;;;;;;;;;4992044;28;20178;-61
2023/02/28 11:22:52;;;;;;;1.88;1.25;;;;;;;;;;4992599;28;20653;-60
2023/02/28 11:25:23;;;;;;;1.50;1.00;;;;;;;;;;4991795;28;20258;-61
2023/02/28 11:27:50;;;;;;;2.10;1.38;;;;;;;;;;4992022;28;20217;-62
2023/02/28 11:30:24;;;;;;;2.25;1.38;;;;;;;;;;4992075;28;20186;-61
2023/02/28 11:32:51;;;;;;;1.77;1.35;;;;;;;;;;4991951;28;20562;-62
2023/02/28 11:35:22;;;;;;;2.83;1.35;;;;;;;;;;4997071;28;20263;-60
2023/02/28 11:37:48;;;;;;;5.25;1.55;;;;;;;;;;5013053;28;20198;-62
2023/02/28 11:40:15;;;;;;;3.50;1.48;;;;;;;;;;5013208;28;20703;-61
2023/02/28 11:42:51;;;;;;;1.75;1.25;;;;;;;;;;5013043;28;20205;-61
2023/02/28 11:45:36;;;;;;;1.73;1.10;;;;;;;;;;5012381;28;20246;-61
2023/02/28 11:48:05;;;;;;;2.08;1.20;;;;;;;;;;5013235;28;20185;-61
2023/02/28 11:50:50;;;;;;;1.83;1.20;;;;;;;;;;5012928;28;20170;-60
2023/02/28 11:53:25;;;;;;;3.20;1.40;;;;;;;;;;5013242;28;20193;-60
2023/02/28 11:56:11;;;;;;;2.67;1.30;;;;;;;;;;5013135;28;20173;-61
2023/02/28 11:58:49;;;;;;;4.55;1.70;;;;;;;;;;5013513;28;20472;-60
2023/02/28 12:01:38;;;;;;;4.05;1.52;;;;;;;;;;5013066;28;20190;-63
2023/02/28 12:04:16;;;;;;;2.45;1.20;;;;;;;;;;5012872;28;20216;-61
2023/02/28 12:06:48;;;;;;;4.43;1.30;;;;;;;;;;5012716;28;20245;-62
2023/02/28 12:09:34;;;;;;;3.60;1.52;;;;;;;;;;5012836;28;20175;-64
2023/02/28 12:12:23;;;;;;;2.22;1.30;;;;;;;;;;5001858;28;20251;-63
2023/02/28 12:14:52;;;;;;;3.53;1.35;;;;;;;;;;5012725;28;20147;-63
2023/02/28 12:17:21;;;;;;;2.67;1.20;;;;;;;;;;5012990;28;20177;-62
2023/02/28 12:20:00;;;;;;;2.75;1.67;;;;;;;;;;5012645;28;20227;-62
2023/02/28 12:22:30;;;;;;;2.38;1.35;;;;;;;;;;5012469;28;20196;-61
2023/02/28 12:25:15;;;;;;;2.70;1.40;;;;;;;;;;5012559;28;20174;-63
2023/02/28 12:27:43;;;;;;;3.10;1.42;;;;;;;;;;5012313;28;20170;-60
2023/02/28 12:30:09;;;;;;;2.47;1.40;;;;;;;;;;5012832;28;20170;-63
2023/02/28 12:32:41;;;;;;;3.22;1.80;;;;;;;;;;5011263;28;20812;-62
2023/02/28 12:35:10;;;;;;;4.05;1.73;;;;;;;;;;5012415;28;20200;-62
2023/02/28 12:37:42;;;;;;;2.70;1.50;;;;;;;;;;5012058;28;20173;-62
2023/02/28 12:40:20;;;;;;;2.92;1.45;;;;;;;;;;5012661;28;20234;-62
2023/02/28 12:42:49;;;;;;;3.10;1.52;;;;;;;;;;5012065;28;20221;-62
2023/02/28 12:45:15;;;;;;;2.33;1.45;;;;;;;;;;5012335;28;20163;-60
2023/02/28 12:47:42;;;;;;;3.05;1.48;;;;;;;;;;5012134;28;20493;-61
2023/02/28 12:50:11;;;;;;;3.58;1.80;;;;;;;;;;5012604;28;20519;-61
2023/02/28 12:52:38;;;;;;;2.22;1.30;;;;;;;;;;5012817;28;20167;-62
2023/02/28 12:55:08;;;;;;;4.05;1.80;;;;;;;;;;5012515;28;20235;-59
2023/02/28 12:57:37;;;;;;;2.05;1.60;;;;;;;;;;5013784;28;20627;-61
2023/02/28 13:00:17;;;;;;;3.17;1.65;;;;;;;;;;5016072;28;20613;-62
2023/02/28 13:02:49;;;;;;;2.33;1.65;;;;;;;;;;5017163;28;20202;-62
2023/02/28 13:05:18;;;;;;;2.00;1.58;;;;;;;;;;5017344;28;20288;-61
2023/02/28 13:07:54;;;;;;;2.55;1.50;;;;;;;;;;5017398;28;20547;-62
2023/02/28 13:10:20;;;;;;;3.25;1.55;;;;;;;;;;5017090;28;20186;-61
2023/02/28 13:12:50;;;;;;;2.55;1.30;;;;;;;;;;5020422;28;20262;-62
2023/02/28 13:15:24;;;;;;;2.53;1.40;;;;;;;;;;5021480;28;20178;-61
2023/02/28 13:17:54;;;;;;;3.63;1.10;;;;;;;;;;5026576;28;20553;-62
2023/02/28 13:20:51;;;;;;;1.88;1.15;;;;;;;;;;5034179;28;20181;-62
2023/02/28 13:23:36;;;;;;;1.85;1.20;;;;;;;;;;5027510;28;20225;-62
2023/02/28 13:26:02;;;;;;;2.20;1.00;;;;;;;;;;5030576;28;20166;-62
2023/02/28 13:28:57;;;;;;;2.85;1.20;;;;;;;;;;5026588;28;20245;-62
2023/02/28 13:31:23;;;;;;;2.90;1.23;;;;;;;;;;5021313;28;20178;-62
2023/02/28 13:33:59;;;;;;;2.60;1.40;;;;;;;;;;5016279;28;20212;-60
2023/02/28 13:36:31;;;;;;;3.25;1.42;;;;;;;;;;5016103;28;20249;-60
2023/02/28 13:39:23;;;;;;;3.33;1.33;;;;;;;;;;5015645;28;20253;-62
2023/02/28 13:41:49;;;;;;;3.30;1.48;;;;;;;;;;5015063;28;20174;-62
2023/02/28 13:44:18;;;;;;;2.17;1.40;;;;;;;;;;5015203;28;20218;-61
2023/02/28 13:46:47;;;;;;;2.85;1.40;;;;;;;;;;5014786;28;20158;-62
2023/02/28 13:49:22;;;;;;;3.92;1.50;;;;;;;;;;5014737;28;20231;-62
2023/02/28 13:52:08;;;;;;;2.30;1.42;;;;;;;;;;5014802;28;20170;-62
2023/02/28 13:54:53;;;;;;;1.25;1.02;;;;;;;;;;5014682;28;20605;-60
2023/02/28 13:57:25;;;;;;;4.55;1.10;;;;;;;;;;5014820;28;20199;-63
2023/02/28 14:00:03;;;;;;;1.65;1.05;;;;;;;;;;5014989;28;20176;-62
2023/02/28 14:02:49;;;;;;;1.20;0.90;;;;;;;;;;5014831;28;20515;-62
2023/02/28 14:05:25;;;;;;;2.35;0.98;;;;;;;;;;5010603;28;20194;-62
2023/02/28 14:07:57;;;;;;;2.08;0.70;;;;;;;;;;5014329;28;20181;-62
2023/02/28 14:10:28;;;;;;;1.50;0.75;;;;;;;;;;5014676;28;20166;-60
2023/02/28 14:12:54;;;;;;;1.77;0.60;;;;;;;;;;5014955;28;20174;-63
2023/02/28 14:15:39;;;;;;;2.92;0.93;;;;;;;;;;5014714;28;20680;-63
2023/02/28 14:18:21;;;;;;;1.67;0.60;;;;;;;;;;5014419;28;20174;-60
2023/02/28 14:20:48;;;;;;;1.00;0.80;;;;;;;;;;5014603;28;20178;-62
2023/02/28 14:23:20;;;;;;;1.63;1.10;;;;;;;;;;5014044;28;20202;-61
2023/02/28 14:25:45;;;;;;;1.77;0.70;;;;;;;;;;5014580;28;20488;-63
2023/02/28 14:28:14;;;;;;;1.25;0.82;;;;;;;;;;5014181;28;20178;-61
2023/02/28 14:30:44;;;;;;;1.92;1.10;;;;;;;;;;5014250;28;20478;-60
2023/02/28 14:33:27;;;;;;;2.13;0.93;;;;;;;;;;5014165;28;20257;-62
2023/02/28 14:36:05;;;;;;;1.58;0.80;;;;;;;;;;5015162;28;20166;-61
2023/02/28 14:38:34;;;;;;;4.53;1.17;;;;;;;;;;5014619;28;20170;-61
2023/02/28 14:41:03;;;;;;;2.97;0.75;;;;;;;;;;5014823;28;20182;-61
2023/02/28 14:43:30;;;;;;;1.60;0.90;;;;;;;;;;5014224;28;20216;-61
2023/02/28 14:46:04;;;;;;;3.42;0.80;;;;;;;;;;5014611;28;20166;-62
2023/02/28 14:48:30;;;;;;;2.05;1.00;;;;;;;;;;5013893;28;20166;-62
2023/02/28 14:50:59;;;;;;;2.42;0.90;;;;;;;;;;5014405;28;20693;-63
2023/02/28 14:53:35;;;;;;;1.10;0.70;;;;;;;;;;5014102;28;20178;-63